Latest Coastal Weather Observations for Rottnest Island

IDW60701

Issued at 2:35 am WST Friday 28 November 2014 (issued every 10 minutes, with the page automatically refreshed every 10 minutes)

About coastal observations | Map of coastal stations | Coastal observations for WA | Marine services | Other Formats
Station Details ID: 009193 Name: ROTTNEST ISLAND Lat: -32.01 Lon: 115.50 Height: 43.1 m
Data from the previous 72 hours. | See also: Recent months at Rottnest Island
Date/Time
WST
Temp

°C
Wind Pressure Rain
since 9am
mm
Weather Cloud Vis
km
Sea
Height
m
Swell
Dir
 
Speed
knots
Gust
knots
hPa Trend Height
m
Period
s
Dir
28/02:30am 19.0 S 13 16 1008.6 - 6.8 - - - - - - -
28/02:00am 19.2 S 13 16 1008.7 - 6.8 - - - - - - -
28/01:30am 19.3 S 14 18 1008.7 - 6.8 - - - - - - -
28/01:00am 19.4 S 14 17 1008.8 - 6.8 - - - - - - -
28/12:30am 19.5 S 11 14 1009.0 - 6.8 - - - - - - -
28/12:00am 19.5 S 8 10 1009.2 - 6.8 - - - - - - -
 
Date/Time
WST
Temp

°C
Wind Pressure Rain
since 9am
mm
Weather Cloud Vis
km
Sea
Height
m
Swell
Dir
 
Speed
knots
Gust
knots
hPa Trend Height
m
Period
s
Dir
27/11:30pm 19.3 S 9 11 1009.1 - 6.8 - - - - - - -
27/11:00pm 19.3 S 11 13 1009.1 - 6.8 - - - - - - -
27/10:30pm 19.5 S 11 12 1009.0 - 6.8 - - - - - - -
27/10:00pm 19.5 S 11 13 1009.2 - 6.8 - - - - - - -
27/09:30pm 19.5 S 10 12 1009.2 - 6.8 - - - - - - -
27/09:00pm 19.5 S 11 14 1009.3 - 6.8 - - - - - - -
27/08:30pm 19.3 S 12 14 1009.0 - 6.8 - - - - - - -
27/08:00pm 19.4 S 11 13 1008.8 - 6.8 - - - - - - -
27/07:30pm 19.9 S 9 12 1008.4 - 6.8 - - - - - - -
27/07:00pm 20.8 SE 7 9 1008.3 - 6.8 - - - - - - -
27/06:30pm 21.9 SE 5 8 1008.4 - 6.8 - - - - - - -
27/06:00pm 22.6 ESE 7 9 1008.2 - 6.8 - - - - - - -
27/05:30pm 22.6 ESE 7 12 1008.2 - 6.8 - - - - - - -
27/05:00pm 21.8 ESE 9 13 1008.5 - 6.8 - - - - - - -
27/04:30pm 21.4 ESE 11 17 1008.5 - 6.8 - - - - - - -
27/04:00pm 21.0 SE 12 17 1008.9 - 6.8 - - - - - - -
27/03:30pm 20.8 SE 14 17 1009.3 - 6.8 - - - - - - -
27/03:00pm 19.7 SE 13 15 1009.9 - 6.8 - - - - - - -
27/02:30pm 19.1 S 12 15 1010.6 - 6.8 - - - - - - -
27/02:00pm 18.8 S 13 15 1010.7 - 6.8 - - - - - - -
27/01:30pm 19.3 S 7 11 1011.2 - 5.6 - - - - - - -
27/01:00pm 20.2 SSE 12 15 1010.2 - 0.2 - - - - - - -
27/12:30pm 20.3 S 13 16 1010.2 - 0.2 - - - - - - -
27/12:00pm 20.8 SSE 11 13 1011.0 - 0.2 - - - - - - -
27/11:30am 21.5 SSE 10 13 1011.2 - 0.2 - - - - - - -
27/11:00am 20.5 SSE 11 13 1011.1 - 0.2 - - - - - - -
27/10:30am 19.9 S 7 9 1011.5 - 0.2 - - - - - - -
27/10:00am 20.3 WSW 7 9 1012.1 - 0.0 - - - - - - -
27/09:30am 20.9 WNW 4 6 1012.3 - 0.0 - - - - - - -
27/09:00am 20.0 E 3 6 1011.9 - 10.8 - - - - - - -
27/08:30am 19.9 SE 7 9 1011.2 - 10.8 - - - - - - -
27/08:00am 19.4 ESE 7 9 1011.4 - 10.8 - - - - - - -
27/07:30am 19.4 NNE 6 9 1011.8 - 10.6 - - - - - - -
27/07:00am 19.3 ENE 10 12 1011.9 - 9.8 - - - - - - -
27/06:30am 19.7 NE 9 14 1011.7 - 7.6 - - - - - - -
27/06:00am 20.2 ESE 6 10 1011.6 - 6.8 Rain - - - - - -
27/05:30am 20.5 NNE 11 18 1010.2 - 6.4 - - - - - - -
27/05:00am 20.3 S 10 12 1010.3 - 6.2 - - - - - - -
27/04:30am 19.6 WSW 7 8 1009.9 - 6.2 - - - - - - -
27/04:00am 20.1 NNE 13 16 1008.7 - 6.2 - - - - - - -
27/03:30am 20.1 NNE 13 15 1008.3 - 6.2 - - - - - - -
27/03:00am 20.4 NNE 13 16 1008.1 - 6.2 - - - - - - -
27/02:30am 20.7 NNE 15 19 1008.1 - 6.2 - - - - - - -
27/02:00am 20.2 NNE 10 12 1008.2 - 6.2 - - - - - - -
27/01:30am 20.9 NE 11 14 1008.4 - 6.2 - - - - - - -
27/01:00am 20.9 NE 11 16 1008.6 - 6.2 - - - - - - -
27/12:30am 21.2 ENE 14 19 1008.7 - 6.2 - - - - - - -
27/12:00am 21.2 ENE 15 22 1008.9 - 6.2 - - - - - - -
 
Date/Time
WST
Temp

°C
Wind Pressure Rain
since 9am
mm
Weather Cloud Vis
km
Sea
Height
m
Swell
Dir
 
Speed
knots
Gust
knots
hPa Trend Height
m
Period
s
Dir
26/11:30pm 21.0 ENE 10 14 1009.2 - 6.2 - - - - - - -
26/11:00pm 21.3 NE 14 24 1009.2 - 6.2 - - - - - - -
26/10:30pm 21.5 ENE 13 19 1009.1 - 6.2 - - - - - - -
26/10:00pm 21.4 E 13 19 1009.3 - 6.2 - - - - - - -
26/09:30pm 20.6 ESE 10 13 1009.3 - 6.2 - - - - - - -
26/09:00pm 20.4 ESE 12 17 1009.4 - 6.2 - - - - - - -
26/08:30pm 20.9 E 16 21 1009.7 - 6.2 - - - - - - -
26/08:00pm 20.4 E 17 25 1009.5 - 6.2 - - - - - - -
26/07:52pm 20.2 E 16 26 1009.3 - 6.2 - - - - - - -
26/07:30pm 20.4 E 18 25 1010.4 - 6.0 - - - - - - -
26/07:00pm 20.2 E 16 23 1010.5 - 6.0 - - - - - - -
26/06:30pm 20.0 E 19 26 1009.7 - 5.4 - - - - - - -
26/06:01pm 20.8 E 22 32 1009.0 - 4.2 - - - - - - -
26/06:00pm 20.8 E 23 32 1008.8 - 4.2 Rain - - - - - -
26/05:34pm 21.1 ENE 22 34 1008.4 - 3.2 - - - - - - -
26/05:30pm 21.1 ENE 20 26 1008.7 - 3.0 - - - - - - -
26/05:17pm 22.4 NE 18 28 1009.0 - 2.4 - - - - - - -
26/05:00pm 23.9 ENE 14 23 1008.7 - 2.2 - - - - - - -
26/04:30pm 22.7 E 10 14 1007.7 - 2.2 - - - - - - -
26/04:00pm 21.9 ESE 12 17 1006.9 - 2.2 - - - - - - -
26/03:30pm 22.1 SE 18 25 1006.7 - 2.0 - - - - - - -
26/03:00pm 22.0 SSE 18 23 1006.3 - 2.0 - - - - - - -
26/02:30pm 22.6 SSE 19 24 1006.6 - 2.0 - - - - - - -
26/02:00pm 22.2 SSE 18 23 1007.5 - 2.0 - - - - - - -
26/01:30pm 21.2 SSE 19 23 1008.2 - 2.0 - - - - - - -
26/01:00pm 21.1 S 12 17 1009.2 - 1.2 - - - - - - -
26/12:30pm 23.4 SW 11 13 1010.0 - 0.0 - - - - - - -
26/12:00pm 24.3 SSE 9 12 1009.3 - 0.0 - - - - - - -
26/11:30am 23.8 SE 12 17 1009.1 - 0.0 - - - - - - -
26/11:00am 26.9 E 14 19 1010.0 - 0.0 - - - - - - -
26/10:30am 27.6 E 16 22 1010.4 - 0.0 - - - - - - -
26/10:00am 25.6 ENE 16 22 1011.1 - 0.0 - - - - - - -
26/09:30am 26.2 E 16 22 1011.2 - 0.0 - - - - - - -
26/09:00am 24.8 E 18 23 1011.5 - 0.0 - - - - - - -
26/08:30am 23.5 E 18 24 1011.7 - 0.0 - - - - - - -
26/08:00am 21.9 E 15 22 1012.0 - 0.0 - - - - - - -
26/07:30am 21.3 E 15 20 1011.9 - 0.0 - - - - - - -
26/07:00am 21.0 E 13 18 1012.0 - 0.0 - - - - - - -
26/06:30am 20.6 E 11 15 1011.9 - 0.0 - - - - - - -
26/06:00am 20.3 E 11 18 1011.9 - 0.0 - - - - - - -
26/05:30am 20.4 E 16 22 1011.7 - 0.0 - - - - - - -
26/05:00am 20.5 E 14 22 1011.6 - 0.0 - - - - - - -
26/04:30am 20.6 E 17 22 1011.6 - 0.0 - - - - - - -
26/04:00am 20.8 E 17 23 1011.6 - 0.0 - - - - - - -
26/03:30am 20.9 E 11 16 1011.6 - 0.0 - - - - - - -
26/03:00am 21.4 E 12 17 1011.6 - 0.0 - - - - - - -
26/02:31am 22.2 E 15 25 1011.4 - 0.0 - - - - - - -
26/02:30am 22.1 E 15 21 1011.4 - 0.0 - - - - - - -
26/02:06am 22.3 E 15 25 1011.1 - 0.0 - - - - - - -
26/02:00am 22.4 E 13 19 1011.3 - 0.0 - - - - - - -
26/01:30am 23.1 E 14 22 1011.4 - 0.0 - - - - - - -
26/01:19am 23.3 E 15 25 1011.5 - 0.0 - - - - - - -
26/01:00am 23.7 E 16 22 1011.2 - 0.0 - - - - - - -
26/12:30am 24.2 E 17 23 1011.4 - 0.0 - - - - - - -
26/12:00am 24.2 ESE 13 20 1011.5 - 0.0 - - - - - - -
 
Date/Time
WST
Temp

°C
Wind Pressure Rain
since 9am
mm
Weather Cloud Vis
km
Sea
Height
m
Swell
Dir
 
Speed
knots
Gust
knots
hPa Trend Height
m
Period
s
Dir
25/11:30pm 24.8 ESE 15 23 1011.6 - 0.0 - - - - - - -
25/11:00pm 24.9 ESE 14 21 1011.8 - 0.0 - - - - - - -
25/10:30pm 23.0 SE 14 17 1012.1 - 0.0 - - - - - - -
25/10:00pm 22.1 SE 15 18 1012.3 - 0.0 - - - - - - -
25/09:30pm 22.3 SSE 14 18 1012.3 - 0.0 - - - - - - -
25/09:00pm 22.1 SSE 13 17 1012.5 - 0.0 - - - - - - -
25/08:30pm 21.8 SSE 14 18 1012.5 - 0.0 - - - - - - -
25/08:00pm 21.7 S 16 20 1012.3 - 0.0 - - - - - - -
25/07:30pm 22.0 S 20 25 1011.8 - 0.0 - - - - - - -
25/07:00pm 22.0 S 23 27 1011.4 - 0.0 - - - - - - -
25/06:30pm 22.2 S 21 26 1011.6 - 0.0 - - - - - - -
25/06:00pm 22.3 S 21 26 1011.7 - 0.0 - - - - - - -
25/05:30pm 22.5 S 21 27 1012.0 - 0.0 - - - - - - -
25/05:00pm 22.5 S 22 27 1012.1 - 0.0 - - - - - - -
25/04:30pm 23.3 S 20 25 1012.6 - 0.0 - - - - - - -
25/04:00pm 23.5 S 21 26 1012.8 - 0.0 - - - - - - -
25/03:30pm 23.5 S 20 24 1013.4 - 0.0 - - - - - - -
25/03:00pm 24.0 S 18 22 1013.9 - 0.0 - - - - - - -
25/02:30pm 23.9 S 17 21 1014.3 - 0.0 - - - - - - -
25/02:00pm 24.7 S 17 22 1014.5 - 0.0 - - - - - - -
25/01:30pm 24.9 S 16 20 1015.1 - 0.0 - - - - - - -
25/01:00pm 24.4 S 15 19 1015.6 - 0.0 - - - - - - -
25/12:30pm 23.6 S 15 19 1015.8 - 0.0 - - - - - - -
25/12:00pm 23.1 S 15 18 1016.2 - 0.0 - - - - - - -
25/11:30am 23.7 S 12 14 1016.8 - 0.0 - - - - - - -
25/11:00am 23.5 S 11 14 1017.1 - 0.0 - - - - - - -
25/10:30am 24.0 SSE 11 14 1017.4 - 0.0 - - - - - - -
25/10:00am 24.1 SE 9 13 1017.7 - 0.0 - - - - - - -
25/09:30am 23.0 E 12 18 1018.0 - 0.0 - - - - - - -
25/09:00am 21.2 E 12 17 1018.2 - 0.0 - - - - - - -
25/08:30am 20.0 E 11 15 1018.4 - 0.0 - - - - - - -
25/08:00am 19.0 E 14 18 1018.6 - 0.0 - - - - - - -
25/07:30am 18.3 E 14 18 1018.5 - 0.0 - - - - - - -
25/07:00am 17.8 E 12 19 1018.2 - 0.0 - - - - - - -
25/06:30am 17.2 E 13 20 1018.1 - 0.0 - - - - - - -
25/06:00am 16.9 E 13 17 1017.9 - 0.0 - - - - - - -
25/05:30am 16.1 E 12 16 1017.6 - 0.0 - - - - - - -
25/05:00am 16.1 ESE 10 14 1017.5 - 0.0 - - - - - - -
25/04:30am 16.6 ESE 12 16 1017.1 - 0.0 - - - - - - -
25/04:00am 17.0 ESE 11 17 1017.1 - 0.0 - - - - - - -
25/03:30am 17.1 ESE 10 13 1017.1 - 0.0 - - - - - - -
25/03:00am 17.5 ESE 9 12 1017.3 - 0.0 - - - - - - -

Other Formats:

Comma delimited format used in spreadsheet applications
http://www.bom.gov.au/fwo/IDW60701/IDW60701.94602.axf

JavaScript Object Notation format (JSON) in row-major order
http://www.bom.gov.au/fwo/IDW60701/IDW60701.94602.json